Time;durP1;ratioP1;P1;durP2;ratioP2;P2;SDS_P1;SDS_P2;PMS_P1;PMS_P2;Temp;Humidity;BMP_temperature;BMP_pressure;BME280_temperature;BME280_humidity;BME280_pressure;Samples;Min_cycle;Max_cycle;Signal;HPM_P1;HPM_P2
2023/12/09 00:00:53;;;;;;;46.10;25.70;;;;;;;-0.38;75.58;99972.98;107298;1253;72668;-39
2023/12/09 00:03:21;;;;;;;49.90;25.60;;;;;;;-0.37;75.41;99978.52;107270;1254;60339;-39
2023/12/09 00:05:48;;;;;;;50.50;24.50;;;;;;;-0.38;75.20;99983.38;107314;1254;60450;-39
2023/12/09 00:08:16;;;;;;;47.00;24.70;;;;;;;-0.44;75.11;99980.23;107318;1254;73819;-39
2023/12/09 00:10:44;;;;;;;42.80;23.80;;;;;;;-0.47;75.04;99979.50;107348;1254;67614;-38
2023/12/09 00:13:11;;;;;;;41.10;24.40;;;;;;;-0.40;74.78;99982.30;107284;1257;71563;-39
2023/12/09 00:15:39;;;;;;;49.20;24.30;;;;;;;-0.31;74.65;99991.98;107329;1259;60459;-39
2023/12/09 00:18:06;;;;;;;35.60;19.70;;;;;;;-0.25;74.49;99996.16;107228;1253;155831;-39
2023/12/09 00:22:18;;;;;;;40.70;22.60;;;;;;;-0.17;74.32;99997.52;104099;1295;612414;-38
2023/12/09 00:24:45;;;;;;;43.60;22.60;;;;;;;-0.14;73.95;100001.16;106674;1264;59235;-38
2023/12/09 00:27:12;;;;;;;40.20;22.40;;;;;;;-0.12;73.79;100001.92;106739;1264;59775;-38
2023/12/09 00:29:39;;;;;;;39.20;21.90;;;;;;;-0.13;73.42;100002.71;106815;1264;72755;-40
2023/12/09 00:32:05;;;;;;;36.40;20.20;;;;;;;-0.17;73.07;100003.38;106763;1263;68945;-38
2023/12/09 00:34:32;;;;;;;31.60;19.10;;;;;;;-0.20;73.23;100003.45;106657;1264;150047;-39
2023/12/09 00:36:59;;;;;;;28.00;18.00;;;;;;;-0.21;72.97;99999.02;106840;1264;59410;-38
2023/12/09 00:39:25;;;;;;;31.70;19.00;;;;;;;-0.24;72.45;99999.36;106825;1263;59067;-38
2023/12/09 00:41:52;;;;;;;33.10;18.90;;;;;;;-0.20;72.45;99993.91;106843;1261;72110;-38
2023/12/09 00:44:20;;;;;;;29.70;18.90;;;;;;;-0.12;72.17;99995.05;106805;1263;67879;-38
2023/12/09 00:46:48;;;;;;;32.10;19.40;;;;;;;-0.13;72.14;99996.11;106892;1264;73239;-38
2023/12/09 00:49:14;;;;;;;33.60;20.30;;;;;;;-0.19;72.15;99994.39;106878;1262;59701;-38
2023/12/09 00:51:41;;;;;;;33.20;20.50;;;;;;;-0.22;72.21;99993.75;106863;1262;60231;-38
2023/12/09 00:54:08;;;;;;;34.70;20.20;;;;;;;-0.22;72.19;99996.41;106818;1263;71883;-38
2023/12/09 00:56:35;;;;;;;35.20;20.20;;;;;;;-0.24;72.12;99993.77;106909;1263;68238;-38
2023/12/09 00:59:02;;;;;;;36.30;19.40;;;;;;;-0.24;72.15;99993.88;107027;1263;71410;-38
2023/12/09 01:01:29;;;;;;;35.10;20.50;;;;;;;-0.29;71.93;99989.83;106860;1266;59624;-38
2023/12/09 01:03:56;;;;;;;35.30;18.80;;;;;;;-0.37;71.90;99988.70;107023;1264;60187;-38
2023/12/09 01:06:23;;;;;;;32.60;18.20;;;;;;;-0.40;72.14;99984.87;106927;1262;73542;-39
2023/12/09 01:08:50;;;;;;;32.70;18.30;;;;;;;-0.35;71.89;99989.54;106903;1263;68427;-38
2023/12/09 01:11:17;;;;;;;32.00;19.20;;;;;;;-0.27;71.75;99989.66;106913;1263;73200;-38
2023/12/09 01:13:44;;;;;;;35.00;20.50;;;;;;;-0.33;71.65;99982.60;106826;1262;61265;-39
2023/12/09 01:16:10;;;;;;;36.40;20.20;;;;;;;-0.30;71.81;99992.19;106828;1263;60517;-39
2023/12/09 01:18:37;;;;;;;36.70;20.20;;;;;;;-0.30;72.03;99994.48;106799;1263;73420;-39
2023/12/09 01:21:05;;;;;;;34.70;20.30;;;;;;;-0.31;72.07;99990.23;106887;1263;67902;-38
2023/12/09 01:23:31;;;;;;;36.80;20.50;;;;;;;-0.33;71.97;99989.42;106871;1263;72536;-39
2023/12/09 01:25:58;;;;;;;29.40;17.10;;;;;;;-0.37;71.80;99995.24;106797;1266;59696;-39
2023/12/09 01:28:25;;;;;;;31.30;17.50;;;;;;;-0.45;71.45;99997.19;106786;1263;60056;-38
2023/12/09 01:30:52;;;;;;;27.30;16.40;;;;;;;-0.53;71.75;100001.15;106830;1262;73620;-39
2023/12/09 01:33:18;;;;;;;26.50;14.10;;;;;;;-0.57;71.81;100002.27;106813;1263;68329;-39
2023/12/09 01:35:45;;;;;;;23.20;14.60;;;;;;;-0.52;71.51;100005.73;106808;1263;73289;-39
2023/12/09 01:38:12;;;;;;;27.20;15.70;;;;;;;-0.46;71.16;100002.52;106782;1263;60000;-39
2023/12/09 01:40:39;;;;;;;24.70;15.50;;;;;;;-0.49;71.30;100000.08;106782;1264;60356;-40
2023/12/09 01:43:09;;;;;;;27.70;16.70;;;;;;;-0.50;71.51;99996.77;106794;1263;73488;-40
2023/12/09 01:45:36;;;;;;;29.10;15.80;;;;;;;-0.47;71.52;99996.71;106811;1264;68269;-40
2023/12/09 01:48:04;;;;;;;26.40;15.80;;;;;;;-0.46;71.54;99995.80;106867;1264;73215;-39
2023/12/09 01:50:31;;;;;;;24.90;14.90;;;;;;;-0.45;71.70;99995.02;106880;1266;59765;-39
2023/12/09 01:52:58;;;;;;;24.70;14.80;;;;;;;-0.47;71.47;99988.46;106886;1262;60108;-37
2023/12/09 01:55:24;;;;;;;21.30;13.60;;;;;;;-0.50;71.13;99990.23;106753;1262;73447;-37
2023/12/09 01:57:52;;;;;;;22.60;13.90;;;;;;;-0.64;70.82;99988.66;106808;1266;68021;-38
2023/12/09 02:00:19;;;;;;;23.20;13.10;;;;;;;-0.77;71.06;99989.23;106747;1268;73306;-38
2023/12/09 02:02:48;;;;;;;20.90;12.90;;;;;;;-0.80;71.45;99987.48;106810;1264;61055;-39
2023/12/09 02:05:15;;;;;;;22.30;13.40;;;;;;;-0.77;71.37;99987.52;106769;1264;60332;-38
2023/12/09 02:07:42;;;;;;;18.70;12.60;;;;;;;-0.79;71.51;99991.15;106802;1263;73603;-38
2023/12/09 02:10:09;;;;;;;21.20;13.70;;;;;;;-0.82;71.94;99992.80;106803;1263;67824;-38
2023/12/09 02:12:45;;;;;;;22.60;13.60;;;;;;;-0.81;71.96;99994.08;106714;1263;73026;-38
2023/12/09 02:15:31;;;;;;;20.90;13.40;;;;;;;-0.82;71.81;99995.79;106751;1263;60094;-38
2023/12/09 02:18:03;;;;;;;18.70;12.70;;;;;;;-0.90;71.77;99996.02;106952;1259;60015;-39
2023/12/09 02:20:30;;;;;;;19.20;12.00;;;;;;;-0.95;71.71;99994.73;107127;1260;73038;-38
2023/12/09 02:23:07;;;;;;;21.00;12.20;;;;;;;-1.04;71.54;99991.17;107008;1259;66526;-38
2023/12/09 02:25:34;;;;;;;19.00;11.40;;;;;;;-1.05;71.70;99990.49;106992;1260;73081;-38
2023/12/09 02:28:05;;;;;;;17.40;11.00;;;;;;;-1.00;72.01;99989.80;107025;1260;59534;-38
2023/12/09 02:30:37;;;;;;;19.30;12.50;;;;;;;-0.96;72.33;99991.60;106983;1259;60150;-38
2023/12/09 02:33:04;;;;;;;20.10;12.60;;;;;;;-0.97;71.89;99990.44;107001;1260;71629;-38
2023/12/09 02:35:31;;;;;;;19.50;11.90;;;;;;;-0.98;72.32;99991.49;107130;1259;67984;-38
2023/12/09 02:37:58;;;;;;;22.10;12.70;;;;;;;-0.93;72.70;99988.88;106839;1260;72996;-38
2023/12/09 02:40:25;;;;;;;20.20;13.00;;;;;;;-0.89;72.47;99986.42;107002;1261;59531;-38
2023/12/09 02:42:51;;;;;;;22.30;13.50;;;;;;;-0.87;72.52;99990.45;106997;1260;59765;-38
2023/12/09 02:45:19;;;;;;;17.80;12.20;;;;;;;-0.92;72.14;99989.04;106998;1260;74732;-38
2023/12/09 02:47:47;;;;;;;17.70;12.00;;;;;;;-0.93;72.25;99988.92;107104;1260;65531;-39
2023/12/09 02:50:14;;;;;;;18.10;11.20;;;;;;;-0.86;72.00;99989.40;107050;1260;71248;-38
2023/12/09 02:52:41;;;;;;;19.10;11.80;;;;;;;-0.85;72.26;99985.84;106987;1260;59496;-38
2023/12/09 02:55:09;;;;;;;20.10;13.10;;;;;;;-0.88;72.08;99989.45;107033;1260;60253;-38
2023/12/09 02:57:35;;;;;;;20.30;12.70;;;;;;;-0.93;71.89;99992.61;107013;1260;73346;-38
2023/12/09 03:00:05;;;;;;;18.70;11.60;;;;;;;-1.00;71.98;99989.80;107144;1260;67922;-39
2023/12/09 03:02:33;;;;;;;18.50;10.50;;;;;;;-1.05;72.03;99992.61;107052;1261;72687;-38
2023/12/09 03:04:59;;;;;;;19.90;11.20;;;;;;;-1.11;72.05;100000.12;107009;1261;59836;-38
2023/12/09 03:07:26;;;;;;;17.50;10.70;;;;;;;-1.17;72.04;100002.36;107026;1261;60316;-38
2023/12/09 03:09:53;;;;;;;16.10;10.30;;;;;;;-1.25;72.03;100001.34;107005;1260;73434;-38
2023/12/09 03:12:20;;;;;;;16.80;10.20;;;;;;;-1.22;72.27;100005.23;106990;1260;66224;-38
2023/12/09 03:14:47;;;;;;;14.30;9.70;;;;;;;-1.14;72.26;100006.34;107028;1263;73164;-39
2023/12/09 03:17:13;;;;;;;18.00;10.60;;;;;;;-1.10;72.25;100007.78;107014;1263;59675;-38
2023/12/09 03:19:40;;;;;;;17.30;11.40;;;;;;;-1.06;72.47;100007.89;107198;1259;60260;-38
2023/12/09 03:22:07;;;;;;;16.50;10.80;;;;;;;-1.01;72.41;100006.77;107048;1260;73562;-38
2023/12/09 03:24:34;;;;;;;17.10;10.70;;;;;;;-0.97;72.34;100008.84;107040;1260;67996;-38
2023/12/09 03:27:01;;;;;;;15.00;10.80;;;;;;;-0.96;72.31;100011.45;107100;1260;73261;-38
2023/12/09 03:29:28;;;;;;;16.80;10.80;;;;;;;-1.00;71.95;100016.36;107004;1260;59818;-38
2023/12/09 03:31:54;;;;;;;17.70;10.20;;;;;;;-1.05;72.08;100021.72;107046;1260;60119;-39
2023/12/09 03:34:21;;;;;;;18.20;11.40;;;;;;;-1.08;72.23;100025.19;107030;1259;73687;-38
2023/12/09 03:36:48;;;;;;;16.90;10.80;;;;;;;-1.13;72.20;100026.79;107029;1260;66595;-38
2023/12/09 03:39:15;;;;;;;14.20;10.10;;;;;;;-1.13;72.18;100021.67;107061;1261;73205;-39
2023/12/09 03:41:42;;;;;;;16.00;10.40;;;;;;;-1.01;72.12;100022.36;107010;1261;59518;-38
2023/12/09 03:44:09;;;;;;;17.20;10.40;;;;;;;-0.94;72.17;100017.98;107056;1260;60006;-38
2023/12/09 03:46:35;;;;;;;18.20;11.10;;;;;;;-0.93;71.98;100016.63;107008;1260;73633;-38
2023/12/09 03:49:02;;;;;;;15.80;10.30;;;;;;;-0.96;72.00;100015.54;107028;1260;67832;-38
2023/12/09 03:51:29;;;;;;;15.70;10.50;;;;;;;-1.01;71.80;100012.25;107053;1260;73084;-38
2023/12/09 03:53:55;;;;;;;17.50;10.70;;;;;;;-1.04;71.94;100014.91;107026;1260;59564;-38
2023/12/09 03:56:22;;;;;;;16.30;10.30;;;;;;;-1.05;72.11;100017.95;107011;1261;60074;-38
2023/12/09 03:58:50;;;;;;;19.40;11.40;;;;;;;-1.07;72.08;100009.38;107016;1260;73340;-38
2023/12/09 04:01:16;;;;;;;17.00;10.20;;;;;;;-1.11;72.00;100007.24;107031;1263;67822;-38
2023/12/09 04:03:43;;;;;;;16.30;10.70;;;;;;;-1.14;72.13;100002.89;107067;1261;72924;-39
2023/12/09 04:06:10;;;;;;;16.30;9.80;;;;;;;-1.09;72.05;100000.92;107020;1260;60979;-38
2023/12/09 04:08:37;;;;;;;16.60;10.30;;;;;;;-1.00;71.72;99996.23;107149;1260;61064;-38
2023/12/09 04:11:04;;;;;;;16.70;10.40;;;;;;;-0.96;71.77;99997.55;107014;1259;73626;-38
2023/12/09 04:13:31;;;;;;;20.20;12.00;;;;;;;-0.96;71.89;99995.58;107025;1261;67757;-38
2023/12/09 04:15:58;;;;;;;19.00;11.00;;;;;;;-0.97;71.84;99990.86;106998;1261;72910;-38
2023/12/09 04:18:25;;;;;;;20.60;12.00;;;;;;;-1.00;71.87;99989.80;106984;1263;59965;-38
2023/12/09 04:20:52;;;;;;;17.80;10.70;;;;;;;-1.05;71.82;99988.52;107069;1260;59528;-38
2023/12/09 04:23:19;;;;;;;20.20;11.80;;;;;;;-1.08;71.88;99988.89;107002;1263;73579;-38
2023/12/09 04:25:46;;;;;;;18.60;12.10;;;;;;;-1.10;72.06;99993.98;106994;1259;67822;-39
2023/12/09 04:28:13;;;;;;;21.40;12.40;;;;;;;-1.11;72.29;99992.77;107007;1261;73209;-38
2023/12/09 04:30:41;;;;;;;20.20;11.80;;;;;;;-1.10;72.39;100000.70;106955;1265;61140;-38
2023/12/09 04:33:07;;;;;;;15.00;9.60;;;;;;;-1.00;72.28;99997.04;106985;1260;60069;-39
2023/12/09 04:35:34;;;;;;;14.80;9.50;;;;;;;-0.93;71.91;100000.39;107080;1260;74449;-39
2023/12/09 04:38:01;;;;;;;15.50;10.20;;;;;;;-1.01;71.68;100005.06;107024;1260;68399;-39
2023/12/09 04:40:27;;;;;;;17.30;10.60;;;;;;;-1.10;71.65;100009.34;107379;1257;73010;-38
2023/12/09 04:42:54;;;;;;;16.60;10.80;;;;;;;-1.21;71.85;100006.08;107385;1255;60093;-38
2023/12/09 04:45:22;;;;;;;15.60;9.80;;;;;;;-1.27;72.23;100012.46;107404;1257;60513;-38
2023/12/09 04:47:49;;;;;;;16.20;10.20;;;;;;;-1.28;72.43;100012.67;107408;1256;74461;-38
2023/12/09 04:50:16;;;;;;;15.90;9.90;;;;;;;-1.28;72.55;100013.00;107491;1256;66545;-38
2023/12/09 04:52:43;;;;;;;15.20;9.50;;;;;;;-1.32;72.54;100011.56;107367;1257;72164;-38
2023/12/09 04:55:10;;;;;;;14.90;9.30;;;;;;;-1.32;72.64;100015.70;107334;1256;61340;-39
2023/12/09 04:57:37;;;;;;;12.20;8.30;;;;;;;-1.27;72.48;100014.64;107383;1257;60368;-38
2023/12/09 05:00:05;;;;;;;11.30;7.60;;;;;;;-1.20;71.80;100018.32;107491;1257;73799;-38
2023/12/09 05:02:33;;;;;;;13.40;8.40;;;;;;;-1.22;72.07;100014.60;107440;1257;68084;-38
2023/12/09 05:04:59;;;;;;;13.40;8.40;;;;;;;-1.29;72.03;100009.86;107380;1255;72980;-38
2023/12/09 05:07:28;;;;;;;16.80;9.20;;;;;;;-1.20;71.94;100023.69;107388;1256;60482;-38
2023/12/09 05:09:54;;;;;;;17.30;10.60;;;;;;;-1.19;71.92;100023.75;107543;1257;60446;-38
2023/12/09 05:12:21;;;;;;;15.90;9.00;;;;;;;-1.17;72.00;100026.31;106633;1258;1003019;-39
2023/12/09 05:14:48;;;;;;;14.00;8.90;;;;;;;-1.17;71.90;100029.02;107420;1256;68151;-38
2023/12/09 05:17:15;;;;;;;14.90;9.50;;;;;;;-1.23;71.82;100029.55;107398;1257;73068;-38
2023/12/09 05:19:42;;;;;;;17.40;9.40;;;;;;;-1.27;71.85;100036.09;107396;1257;60382;-38
2023/12/09 05:22:09;;;;;;;15.50;9.40;;;;;;;-1.28;71.85;100039.55;107473;1255;60211;-38
2023/12/09 05:24:36;;;;;;;13.50;8.60;;;;;;;-1.22;71.59;100041.20;107340;1256;74396;-38
2023/12/09 05:27:04;;;;;;;15.10;8.90;;;;;;;-1.13;71.54;100039.39;107393;1259;67918;-38
2023/12/09 05:29:31;;;;;;;13.40;9.00;;;;;;;-1.07;71.87;100036.63;107366;1254;73203;-38
2023/12/09 05:31:58;;;;;;;14.50;8.90;;;;;;;-1.02;71.84;100038.61;107398;1256;60319;-38
2023/12/09 05:34:25;;;;;;;13.50;9.10;;;;;;;-0.94;71.69;100040.88;107450;1255;60340;-38
2023/12/09 05:36:52;;;;;;;15.00;9.20;;;;;;;-0.90;71.51;100040.67;107470;1256;74350;-38
2023/12/09 05:39:19;;;;;;;13.70;9.00;;;;;;;-0.87;71.40;100036.63;107413;1257;68244;-38
2023/12/09 05:41:46;;;;;;;15.60;9.00;;;;;;;-0.83;71.41;100034.02;107475;1258;72702;-38
2023/12/09 05:44:12;;;;;;;13.10;8.80;;;;;;;-0.81;71.34;100033.42;107389;1255;60341;-39
2023/12/09 05:46:40;;;;;;;13.60;8.50;;;;;;;-0.80;71.07;100035.92;107394;1255;60460;-39
2023/12/09 05:49:06;;;;;;;14.40;8.80;;;;;;;-0.81;71.09;100031.06;107406;1255;73967;-39
2023/12/09 05:51:33;;;;;;;14.60;9.10;;;;;;;-0.83;70.90;100032.36;107502;1257;68275;-39
2023/12/09 05:54:01;;;;;;;14.60;9.00;;;;;;;-0.86;70.62;100040.34;107398;1257;73178;-40
2023/12/09 05:56:28;;;;;;;11.90;8.20;;;;;;;-0.81;70.45;100033.48;107398;1256;60722;-39
2023/12/09 05:58:55;;;;;;;14.90;9.10;;;;;;;-0.75;70.42;100037.83;107409;1255;60452;-39
2023/12/09 06:01:22;;;;;;;17.70;9.30;;;;;;;-0.76;70.40;100037.94;107380;1257;73242;-38
2023/12/09 06:03:48;;;;;;;14.30;9.00;;;;;;;-0.79;70.55;100038.86;107474;1257;66557;-38
2023/12/09 06:06:16;;;;;;;16.60;9.70;;;;;;;-0.81;70.51;100039.11;107393;1257;73041;-38
2023/12/09 06:08:42;;;;;;;15.30;9.90;;;;;;;-0.84;70.63;100035.71;107417;1257;60344;-37
2023/12/09 06:11:09;;;;;;;16.10;9.50;;;;;;;-0.82;70.99;100038.91;107413;1257;60356;-38
2023/12/09 06:13:36;;;;;;;16.70;9.80;;;;;;;-0.79;70.98;100036.35;107389;1257;74469;-38
2023/12/09 06:16:03;;;;;;;17.00;10.00;;;;;;;-0.76;71.16;100037.83;107371;1257;67774;-39
2023/12/09 06:18:30;;;;;;;18.60;9.70;;;;;;;-0.74;70.88;100034.54;107494;1255;72102;-38
2023/12/09 06:20:57;;;;;;;19.80;10.20;;;;;;;-0.73;70.92;100031.83;107426;1257;60544;-38
2023/12/09 06:23:23;;;;;;;19.10;12.10;;;;;;;-0.71;70.90;100031.70;107388;1257;60328;-38
2023/12/09 06:25:50;;;;;;;15.30;8.90;;;;;;;-0.66;70.75;100030.80;107391;1255;73960;-38
2023/12/09 06:28:17;;;;;;;15.60;9.00;;;;;;;-0.60;70.29;100025.40;107398;1257;68231;-38
2023/12/09 06:30:44;;;;;;;17.00;9.20;;;;;;;-0.59;70.34;100025.35;107372;1257;73778;-38
2023/12/09 06:33:11;;;;;;;16.40;9.50;;;;;;;-0.59;70.46;100027.02;107408;1257;60427;-38
2023/12/09 06:35:38;;;;;;;18.30;10.20;;;;;;;-0.59;70.50;100028.45;107429;1255;60486;-38
2023/12/09 06:38:05;;;;;;;18.10;9.60;;;;;;;-0.60;70.26;100023.55;107385;1257;74112;-38
2023/12/09 06:40:32;;;;;;;18.20;9.90;;;;;;;-0.64;70.29;100023.76;107498;1257;68219;-38
2023/12/09 06:42:58;;;;;;;21.70;11.00;;;;;;;-0.66;70.31;100024.25;107417;1254;73058;-38
2023/12/09 06:45:25;;;;;;;19.80;10.60;;;;;;;-0.71;70.56;100027.44;107481;1255;60355;-38
2023/12/09 06:47:53;;;;;;;18.30;10.60;;;;;;;-0.74;70.77;100025.27;106709;1256;1003025;-38
2023/12/09 06:50:21;;;;;;;24.10;11.70;;;;;;;-0.75;70.89;100027.34;107417;1257;73391;-38
2023/12/09 06:52:47;;;;;;;25.30;11.50;;;;;;;-0.70;70.90;100027.34;107409;1257;68131;-38
2023/12/09 06:55:14;;;;;;;21.70;11.00;;;;;;;-0.60;70.98;100032.11;107362;1257;73237;-38
2023/12/09 06:57:41;;;;;;;23.60;13.10;;;;;;;-0.54;71.22;100033.64;107408;1258;60316;-39
2023/12/09 07:00:09;;;;;;;25.30;11.80;;;;;;;-0.50;71.32;100034.71;107315;1258;60425;-39
2023/12/09 07:02:36;;;;;;;23.30;12.40;;;;;;;-0.48;71.18;100030.07;107423;1257;72936;-39
2023/12/09 07:05:20;;;;;;;24.30;12.80;;;;;;;-0.46;71.26;100033.58;107460;1256;67859;-39
2023/12/09 07:07:49;;;;;;;26.60;12.60;;;;;;;-0.42;71.40;100036.91;107451;1255;71383;-39
2023/12/09 07:10:16;;;;;;;30.40;13.80;;;;;;;-0.38;71.18;100040.64;107455;1257;60306;-38
2023/12/09 07:12:43;;;;;;;25.70;14.20;;;;;;;-0.39;71.13;100044.27;107396;1256;60332;-38
2023/12/09 07:15:12;;;;;;;26.50;14.10;;;;;;;-0.40;71.15;100038.79;107400;1256;73076;-38
2023/12/09 07:17:38;;;;;;;28.20;14.40;;;;;;;-0.45;71.03;100039.59;107474;1258;67904;-38
2023/12/09 07:20:06;;;;;;;29.50;15.20;;;;;;;-0.44;70.98;100039.80;107476;1255;73173;-38
2023/12/09 07:22:32;;;;;;;28.70;15.70;;;;;;;-0.38;71.13;100038.83;107433;1258;59582;-38
2023/12/09 07:24:59;;;;;;;29.80;15.00;;;;;;;-0.35;71.42;100038.62;107223;1257;60483;-38
2023/12/09 07:27:26;;;;;;;34.10;16.40;;;;;;;-0.40;71.30;100031.91;107342;1256;72010;-38
2023/12/09 07:29:53;;;;;;;33.40;16.40;;;;;;;-0.37;71.35;100041.38;107455;1257;67980;-39
2023/12/09 07:32:20;;;;;;;35.60;18.20;;;;;;;-0.36;71.66;100046.55;107400;1257;73152;-38
2023/12/09 07:34:47;;;;;;;43.80;19.80;;;;;;;-0.35;71.65;100043.67;107374;1257;60322;-38
2023/12/09 07:37:14;;;;;;;37.20;18.40;;;;;;;-0.37;71.81;100042.92;107476;1258;60437;-39
2023/12/09 07:39:41;;;;;;;41.20;17.60;;;;;;;-0.36;71.75;100044.36;107525;1257;72427;-39
2023/12/09 07:42:08;;;;;;;37.90;18.20;;;;;;;-0.34;71.86;100049.48;107436;1257;67998;-39
2023/12/09 07:44:35;;;;;;;41.70;17.90;;;;;;;-0.27;71.88;100049.56;107509;1256;73248;-39
2023/12/09 07:47:01;;;;;;;42.80;19.10;;;;;;;-0.13;71.68;100053.45;107353;1257;60335;-39
2023/12/09 07:49:28;;;;;;;41.40;20.20;;;;;;;-0.07;71.51;100055.73;107345;1257;59435;-38
2023/12/09 07:51:55;;;;;;;51.80;23.30;;;;;;;-0.02;71.57;100061.10;107440;1257;74419;-39
2023/12/09 07:54:22;;;;;;;45.20;23.40;;;;;;;0.00;71.30;100066.09;107610;1254;67822;-39
2023/12/09 07:56:49;;;;;;;48.90;25.20;;;;;;;0.04;71.15;100064.17;107605;1254;73219;-39
2023/12/09 07:59:15;;;;;;;47.50;23.40;;;;;;;0.04;71.02;100070.35;107601;1253;60472;-39
2023/12/09 08:01:42;;;;;;;41.50;21.40;;;;;;;0.05;70.98;100067.95;107618;1254;60504;-38
2023/12/09 08:04:09;;;;;;;48.70;22.20;;;;;;;0.09;71.12;100065.80;107639;1252;74226;-39
2023/12/09 08:06:36;;;;;;;38.90;20.30;;;;;;;0.13;70.87;100066.86;107603;1254;67799;-39
2023/12/09 08:09:03;;;;;;;38.80;19.00;;;;;;;0.14;70.71;100063.70;107666;1253;73073;-39
2023/12/09 08:11:30;;;;;;;35.10;18.40;;;;;;;0.18;70.69;100060.17;107594;1252;61206;-38
2023/12/09 08:13:56;;;;;;;29.20;16.70;;;;;;;0.30;70.43;100056.58;107647;1252;60402;-39
2023/12/09 08:16:23;;;;;;;34.10;17.50;;;;;;;0.38;70.34;100060.58;107610;1253;74309;-39
2023/12/09 08:18:49;;;;;;;29.50;16.70;;;;;;;0.42;70.30;100058.44;107636;1254;67853;-39
2023/12/09 08:21:17;;;;;;;29.60;16.80;;;;;;;0.49;70.21;100058.34;107587;1254;73151;-39
2023/12/09 08:23:43;;;;;;;25.70;16.30;;;;;;;0.53;69.73;100059.34;107602;1255;60546;-39
2023/12/09 08:26:16;;;;;;;28.70;16.70;;;;;;;0.55;69.55;100052.27;107613;1255;60422;-39
2023/12/09 08:28:43;;;;;;;29.30;16.90;;;;;;;0.56;69.23;100048.43;107595;1254;73835;-39
2023/12/09 08:31:09;;;;;;;28.70;16.50;;;;;;;0.58;69.19;100043.98;107610;1254;68144;-39
2023/12/09 08:33:36;;;;;;;27.80;16.70;;;;;;;0.58;69.02;100040.75;107559;1255;73369;-39
2023/12/09 08:36:03;;;;;;;29.80;17.40;;;;;;;0.55;68.93;100044.02;107694;1256;60383;-38
2023/12/09 08:38:30;;;;;;;28.50;16.80;;;;;;;0.52;68.77;100043.08;107655;1253;60527;-39
2023/12/09 08:40:57;;;;;;;28.60;16.30;;;;;;;0.44;68.26;100039.01;107600;1256;74498;-39
2023/12/09 08:43:24;;;;;;;27.30;16.60;;;;;;;0.43;68.46;100034.00;107627;1254;68120;-39
2023/12/09 08:45:51;;;;;;;27.10;16.70;;;;;;;0.52;68.57;100032.13;107610;1254;72828;-39
2023/12/09 08:48:18;;;;;;;27.20;17.50;;;;;;;0.60;68.77;100033.05;107581;1254;60671;-39
2023/12/09 08:50:45;;;;;;;26.50;18.00;;;;;;;0.66;68.60;100030.44;107625;1254;60416;-39
2023/12/09 08:53:12;;;;;;;27.40;17.50;;;;;;;0.67;67.74;100031.18;107590;1254;74251;-39
2023/12/09 08:55:39;;;;;;;29.70;18.80;;;;;;;0.63;68.12;100028.08;107605;1254;66950;-39
2023/12/09 08:58:05;;;;;;;31.00;18.30;;;;;;;0.60;67.86;100028.23;107577;1254;73272;-39
2023/12/09 09:00:32;;;;;;;30.70;18.50;;;;;;;0.53;67.65;100025.45;107561;1254;60437;-39
2023/12/09 09:02:59;;;;;;;33.00;19.90;;;;;;;0.41;67.54;100019.39;107700;1256;60423;-39
2023/12/09 09:05:26;;;;;;;27.60;17.20;;;;;;;0.28;68.06;100013.81;107603;1256;74374;-39
2023/12/09 09:07:53;;;;;;;26.90;17.00;;;;;;;0.25;68.33;100009.20;107631;1256;67697;-38
2023/12/09 09:10:20;;;;;;;26.70;17.00;;;;;;;0.34;68.76;100007.38;107602;1254;73052;-39
2023/12/09 09:12:47;;;;;;;28.90;17.60;;;;;;;0.42;68.86;100005.46;107626;1254;60290;-38
2023/12/09 09:15:16;;;;;;;28.90;18.90;;;;;;;0.46;68.96;100004.75;107613;1254;60431;-38
2023/12/09 09:17:43;;;;;;;29.90;17.80;;;;;;;0.50;68.64;100002.15;107680;1255;73030;-38
2023/12/09 09:20:10;;;;;;;32.80;19.70;;;;;;;0.46;68.39;99997.12;107631;1255;68256;-39
2023/12/09 09:22:37;;;;;;;30.20;18.80;;;;;;;0.45;68.68;100000.11;107645;1252;72469;-39
2023/12/09 09:25:04;;;;;;;35.10;20.60;;;;;;;0.47;68.60;99996.59;107593;1254;60484;-39
2023/12/09 09:27:31;;;;;;;31.00;19.30;;;;;;;0.40;68.18;99994.44;107581;1254;60440;-39
2023/12/09 09:29:58;;;;;;;33.30;19.10;;;;;;;0.31;68.42;99991.34;107610;1252;74347;-39
2023/12/09 09:32:26;;;;;;;32.90;18.80;;;;;;;0.27;68.51;99984.70;107715;1254;66454;-39
2023/12/09 09:34:53;;;;;;;35.30;19.90;;;;;;;0.27;68.26;99987.97;107580;1252;73266;-39
2023/12/09 09:37:20;;;;;;;37.00;20.90;;;;;;;0.23;68.67;99985.27;107571;1254;60314;-39
2023/12/09 09:39:48;;;;;;;36.20;21.90;;;;;;;0.22;68.85;99985.95;107615;1254;60446;-40
2023/12/09 09:42:25;;;;;;;33.10;19.60;;;;;;;0.18;68.92;99986.73;107724;1252;74397;-39
2023/12/09 09:45:05;;;;;;;41.80;23.00;;;;;;;0.17;69.35;99988.39;107691;1255;68279;-39
2023/12/09 09:47:42;;;;;;;38.90;22.80;;;;;;;0.13;69.38;99990.71;106814;1253;1003336;-39
2023/12/09 09:50:10;;;;;;;41.80;23.00;;;;;;;0.09;69.41;99989.35;106863;1254;1002881;-39
2023/12/09 09:52:40;;;;;;;39.80;22.40;;;;;;;0.04;69.37;99988.79;107607;1254;60403;-39
2023/12/09 09:55:07;;;;;;;43.90;24.40;;;;;;;0.04;69.60;99985.53;107587;1252;75347;-39
2023/12/09 09:57:34;;;;;;;49.70;26.10;;;;;;;0.00;69.93;99983.58;107651;1254;67429;-39
2023/12/09 10:00:01;;;;;;;53.10;26.50;;;;;;;-0.09;70.06;99987.35;107721;1256;72943;-39
2023/12/09 10:02:35;;;;;;;47.30;25.90;;;;;;;-0.19;70.53;99982.86;107607;1254;60444;-39
2023/12/09 10:05:03;;;;;;;50.70;25.50;;;;;;;-0.23;70.89;99979.09;107640;1255;60730;-39
2023/12/09 10:07:30;;;;;;;47.60;26.00;;;;;;;-0.22;71.35;99976.75;107591;1254;74427;-39
2023/12/09 10:09:57;;;;;;;50.70;24.80;;;;;;;-0.13;71.42;99970.84;107640;1254;68145;-39
2023/12/09 10:12:26;;;;;;;42.80;24.00;;;;;;;0.02;71.16;99969.54;107594;1254;73056;-39
2023/12/09 10:14:53;;;;;;;38.10;20.00;;;;;;;0.09;71.18;99964.39;107612;1253;60526;-39
2023/12/09 10:17:20;;;;;;;51.60;26.20;;;;;;;0.12;70.91;99962.94;107607;1252;60403;-38
2023/12/09 10:19:47;;;;;;;51.20;26.50;;;;;;;0.10;70.76;99960.86;107612;1256;74466;-38
2023/12/09 10:22:14;;;;;;;51.70;27.60;;;;;;;0.04;70.79;99957.70;107659;1253;66235;-38
2023/12/09 10:24:51;;;;;;;47.50;26.30;;;;;;;-0.00;70.95;99956.39;107615;1255;73194;-38
2023/12/09 10:27:24;;;;;;;55.90;27.30;;;;;;;-0.01;71.06;99953.27;107703;1254;60149;-38
2023/12/09 10:29:52;;;;;;;55.30;26.60;;;;;;;-0.01;71.04;99951.49;107560;1254;60415;-39
2023/12/09 10:32:22;;;;;;;52.20;26.20;;;;;;;0.01;70.78;99950.73;107613;1252;73878;-38
2023/12/09 10:34:49;;;;;;;52.90;27.10;;;;;;;0.05;70.77;99951.08;107663;1257;65470;-39
2023/12/09 10:37:17;;;;;;;51.10;26.90;;;;;;;0.09;70.99;99952.56;107677;1257;71374;-37
2023/12/09 10:39:45;;;;;;;50.60;26.60;;;;;;;0.15;71.27;99946.70;107639;1256;60287;-37
2023/12/09 10:42:12;;;;;;;52.70;26.90;;;;;;;0.20;71.16;99947.73;106880;1253;1003477;-38
2023/12/09 10:44:42;;;;;;;46.80;26.20;;;;;;;0.23;70.83;99944.41;107661;1254;73868;-38
2023/12/09 10:47:09;;;;;;;46.60;25.20;;;;;;;0.27;70.70;99944.28;107635;1255;69172;-37
2023/12/09 10:49:36;;;;;;;48.00;24.50;;;;;;;0.31;70.55;99943.83;107587;1251;72929;-38
2023/12/09 10:52:04;;;;;;;42.30;23.10;;;;;;;0.32;70.40;99945.31;107599;1253;60549;-38
2023/12/09 10:54:30;;;;;;;38.50;21.90;;;;;;;0.40;70.03;99942.70;107652;1257;60318;-39
2023/12/09 10:56:58;;;;;;;42.40;24.60;;;;;;;0.51;69.64;99939.05;107582;1252;74066;-38
2023/12/09 10:59:26;;;;;;;46.20;25.60;;;;;;;0.50;69.57;99935.15;107601;1256;68151;-38
2023/12/09 11:01:53;;;;;;;47.70;25.70;;;;;;;0.46;69.54;99932.79;107450;1254;73357;-39
2023/12/09 11:04:19;;;;;;;48.70;25.50;;;;;;;0.42;69.54;99931.70;107441;1254;60552;-39
2023/12/09 11:06:47;;;;;;;54.40;27.40;;;;;;;0.38;69.57;99931.30;107615;1256;60482;-38
2023/12/09 11:09:14;;;;;;;45.40;24.40;;;;;;;0.31;69.92;99926.98;107468;1254;74090;-39